createdAt,value
2022-10-21T00:00:40.297Z,62.70
2022-10-21T00:03:07.301Z,62.30
2022-10-21T00:05:33.946Z,62.20
2022-10-21T00:08:00.698Z,62.20
2022-10-21T00:10:27.627Z,62.80
2022-10-21T00:12:54.352Z,62.90
2022-10-21T00:15:20.974Z,62.80
2022-10-21T00:17:47.679Z,62.70
2022-10-21T00:20:14.407Z,62.90
2022-10-21T00:22:41.348Z,62.50
2022-10-21T00:25:08.368Z,62.90
2022-10-21T00:27:35.546Z,62.70
2022-10-21T00:30:03.416Z,62.70
2022-10-21T00:32:30.078Z,62.30
2022-10-21T00:34:56.760Z,62.40
2022-10-21T00:37:23.452Z,62.70
2022-10-21T00:39:51.527Z,62.60
2022-10-21T00:42:19.833Z,62.50
2022-10-21T00:45:04.878Z,63.00
2022-10-21T00:47:41.458Z,62.30
2022-10-21T00:50:17.942Z,62.30
2022-10-21T00:52:44.580Z,62.10
2022-10-21T00:55:11.299Z,62.60
2022-10-21T00:57:38.236Z,62.80
2022-10-21T01:00:06.048Z,62.10
2022-10-21T01:02:32.655Z,62.60
2022-10-21T01:05:00.205Z,62.50
2022-10-21T01:07:26.910Z,62.30
2022-10-21T01:09:53.686Z,61.80
2022-10-21T01:12:44.036Z,61.80
2022-10-21T01:15:19.916Z,62.00
2022-10-21T01:17:52.801Z,62.20
2022-10-21T01:20:19.599Z,62.30
2022-10-21T01:22:55.368Z,62.60
2022-10-21T01:25:40.930Z,62.30
2022-10-21T01:28:10.577Z,62.40
2022-10-21T01:30:44.051Z,62.20
2022-10-21T01:33:17.492Z,62.40
2022-10-21T01:36:03.092Z,62.40
2022-10-21T01:38:36.938Z,62.50
2022-10-21T01:41:13.491Z,62.50
2022-10-21T01:43:55.034Z,62.70
2022-10-21T01:46:25.806Z,62.40
2022-10-21T01:48:56.506Z,62.40
2022-10-21T01:53:54.297Z,62.30
2022-10-21T01:56:21.390Z,62.50
2022-10-21T01:58:48.996Z,62.10
2022-10-21T02:01:16.590Z,62.10
2022-10-21T02:03:45.163Z,62.50
2022-10-21T02:06:14.148Z,62.40
2022-10-21T02:08:41.704Z,62.90
2022-10-21T02:11:09.439Z,62.70
2022-10-21T02:13:40.213Z,62.10
2022-10-21T02:16:08.597Z,62.50
2022-10-21T02:18:35.299Z,62.10
2022-10-21T02:21:04.769Z,63.00
2022-10-21T02:23:39.792Z,62.30
2022-10-21T02:26:06.603Z,62.30
2022-10-21T02:28:33.462Z,62.10
2022-10-21T02:31:18.855Z,62.20
2022-10-21T02:33:45.441Z,62.50
2022-10-21T02:36:14.355Z,62.20
2022-10-21T02:38:47.547Z,62.40
2022-10-21T02:41:16.599Z,63.50
2022-10-21T02:43:55.369Z,63.50
2022-10-21T02:46:22.093Z,62.80
2022-10-21T02:48:48.848Z,63.20
2022-10-21T02:51:15.875Z,62.40
2022-10-21T02:53:42.843Z,62.20
2022-10-21T02:56:09.521Z,62.40
2022-10-21T02:58:37.183Z,62.60
2022-10-21T03:01:03.897Z,63.10
2022-10-21T03:03:30.641Z,62.80
2022-10-21T03:05:57.537Z,62.20
2022-10-21T03:08:24.260Z,63.10
2022-10-21T03:10:53.203Z,62.70
2022-10-21T03:13:20.663Z,63.00
2022-10-21T03:15:48.233Z,63.00
2022-10-21T03:18:14.925Z,62.80
2022-10-21T03:20:41.633Z,62.70
2022-10-21T03:23:08.290Z,62.70
2022-10-21T03:25:35.767Z,62.50
2022-10-21T03:28:02.610Z,62.50
2022-10-21T03:30:29.327Z,63.10
2022-10-21T03:32:56.004Z,63.00
2022-10-21T03:35:22.650Z,63.40
2022-10-21T03:37:49.346Z,63.00
2022-10-21T03:40:16.062Z,62.80
2022-10-21T03:42:42.682Z,62.80
2022-10-21T03:45:09.617Z,62.90
2022-10-21T03:47:36.340Z,62.50
2022-10-21T03:50:05.412Z,62.90
2022-10-21T03:52:34.253Z,62.40
2022-10-21T03:55:00.876Z,62.40
2022-10-21T03:57:27.666Z,62.30
2022-10-21T03:59:54.316Z,62.40
2022-10-21T04:02:21.123Z,63.30
2022-10-21T04:04:47.757Z,63.20
2022-10-21T04:07:14.389Z,63.20
2022-10-21T04:09:41.061Z,63.90
2022-10-21T04:12:07.701Z,63.30
2022-10-21T04:14:34.364Z,63.30
2022-10-21T04:17:07.652Z,63.40
2022-10-21T04:19:34.738Z,63.70
2022-10-21T04:22:01.423Z,63.50
2022-10-21T04:24:28.062Z,63.10
2022-10-21T04:26:54.825Z,64.00
2022-10-21T04:29:21.537Z,63.70
2022-10-21T04:31:48.253Z,63.70
2022-10-21T04:34:14.985Z,64.00
2022-10-21T04:36:41.634Z,63.70
2022-10-21T04:39:08.263Z,63.50
2022-10-21T04:41:34.914Z,63.60
2022-10-21T04:44:01.933Z,63.20
2022-10-21T04:46:28.599Z,63.70
2022-10-21T04:48:55.252Z,63.70
2022-10-21T04:51:22.033Z,63.70
2022-10-21T04:53:48.743Z,63.90
2022-10-21T04:56:15.434Z,63.50
2022-10-21T04:58:42.119Z,63.50
2022-10-21T05:01:08.793Z,63.40
2022-10-21T05:03:35.475Z,63.90
2022-10-21T05:06:02.134Z,63.70
2022-10-21T05:08:28.909Z,63.90
2022-10-21T05:11:02.036Z,63.90
2022-10-21T05:13:28.995Z,63.80
2022-10-21T05:15:59.557Z,63.30
2022-10-21T05:18:26.211Z,63.30
2022-10-21T05:20:54.596Z,63.50
2022-10-21T05:23:21.427Z,63.70
2022-10-21T05:25:48.975Z,63.70
2022-10-21T05:28:15.621Z,63.70
2022-10-21T05:33:09.215Z,63.30
2022-10-21T05:35:36.123Z,63.90
2022-10-21T05:38:02.963Z,63.80
2022-10-21T05:40:29.683Z,63.80
2022-10-21T05:42:56.322Z,63.80
2022-10-21T05:45:23.144Z,63.50
2022-10-21T05:47:51.000Z,63.30
2022-10-21T05:50:17.855Z,63.70
2022-10-21T05:52:44.616Z,63.60
2022-10-21T05:55:11.910Z,63.80
2022-10-21T05:57:38.790Z,63.90
2022-10-21T06:00:06.045Z,63.90
2022-10-21T06:02:32.723Z,63.90
2022-10-21T06:04:59.396Z,64.30
2022-10-21T06:07:26.036Z,63.50
2022-10-21T06:09:54.782Z,63.90
2022-10-21T06:12:22.004Z,64.10
2022-10-21T06:14:48.671Z,63.90
2022-10-21T06:17:15.363Z,64.60
2022-10-21T06:19:44.848Z,64.10
2022-10-21T06:22:14.670Z,63.90
2022-10-21T06:24:41.291Z,63.60
2022-10-21T06:27:08.663Z,63.60
2022-10-21T06:29:35.399Z,64.00
2022-10-21T06:32:02.107Z,64.00
2022-10-21T06:34:28.718Z,64.00
2022-10-21T06:36:55.351Z,63.90
2022-10-21T06:39:21.965Z,64.00
2022-10-21T06:41:48.574Z,63.60
2022-10-21T06:44:15.182Z,63.80
2022-10-21T06:46:41.790Z,63.80
2022-10-21T06:49:08.398Z,63.70
2022-10-21T06:51:35.037Z,64.00
2022-10-21T06:54:02.078Z,63.90
2022-10-21T06:56:29.033Z,63.90
2022-10-21T06:58:56.849Z,63.90
2022-10-21T07:01:34.758Z,64.90
2022-10-21T07:04:08.850Z,64.30
2022-10-21T07:06:35.898Z,64.30
2022-10-21T07:09:03.857Z,64.30
2022-10-21T07:11:30.603Z,64.30
2022-10-21T07:13:57.298Z,64.20
2022-10-21T07:16:25.140Z,64.00
2022-10-21T07:18:51.909Z,64.50
2022-10-21T07:21:19.693Z,64.40
2022-10-21T07:23:48.958Z,64.30
2022-10-21T07:26:15.701Z,64.30
2022-10-21T07:28:46.787Z,64.40
2022-10-21T07:31:20.466Z,64.50
2022-10-21T07:33:47.511Z,64.30
2022-10-21T07:36:21.892Z,64.30
2022-10-21T07:38:50.086Z,64.20
2022-10-21T07:41:18.155Z,64.20
2022-10-21T07:43:45.348Z,64.40
2022-10-21T07:46:11.975Z,64.50
2022-10-21T07:48:38.648Z,64.30
2022-10-21T07:51:06.596Z,63.90
2022-10-21T07:53:34.551Z,64.10
2022-10-21T07:56:06.082Z,63.90
2022-10-21T07:58:32.861Z,64.10
2022-10-21T08:01:03.146Z,64.10
2022-10-21T08:03:30.215Z,64.10
2022-10-21T08:05:59.255Z,64.10
2022-10-21T08:08:26.612Z,64.10
2022-10-21T08:10:54.479Z,64.20
2022-10-21T08:13:21.698Z,64.30
2022-10-21T08:15:49.433Z,64.20
2022-10-21T08:18:16.481Z,64.10
2022-10-21T08:20:44.181Z,64.10
2022-10-21T08:23:11.976Z,64.10
2022-10-21T08:25:38.941Z,64.40
2022-10-21T08:28:08.636Z,63.50
2022-10-21T08:30:35.449Z,63.50
2022-10-21T08:33:02.152Z,63.10
2022-10-21T08:35:28.827Z,63.40
2022-10-21T08:37:55.625Z,63.20
2022-10-21T08:40:22.809Z,63.60
2022-10-21T08:42:49.476Z,63.40
2022-10-21T08:45:23.234Z,63.40
2022-10-21T08:47:53.030Z,63.50
2022-10-21T08:50:22.029Z,63.30
2022-10-21T08:52:57.468Z,63.30
2022-10-21T08:55:34.606Z,63.50
2022-10-21T08:58:03.581Z,63.50
2022-10-21T09:00:44.267Z,63.60
2022-10-21T09:03:16.194Z,63.70
2022-10-21T09:05:57.852Z,63.70
2022-10-21T09:08:51.491Z,63.00
2022-10-21T09:11:56.783Z,63.80
2022-10-21T09:14:47.375Z,63.90
2022-10-21T09:17:30.666Z,64.20
2022-10-21T09:20:19.747Z,63.90
2022-10-21T09:23:18.558Z,64.10
2022-10-21T09:26:45.113Z,64.10
2022-10-21T09:29:32.752Z,63.80
2022-10-21T09:32:15.328Z,64.10
2022-10-21T09:34:57.417Z,64.10
2022-10-21T09:50:39.540Z,64.40
2022-10-21T09:52:44.666Z,64.40
2022-10-21T09:58:43.972Z,64.30
2022-10-21T10:01:16.281Z,64.40
2022-10-21T10:03:45.746Z,64.60
2022-10-21T10:06:15.394Z,65.10
2022-10-21T10:08:43.485Z,64.60
2022-10-21T10:11:13.326Z,65.00
2022-10-21T10:16:44.485Z,64.60
2022-10-21T10:19:18.326Z,64.70
2022-10-21T10:21:45.947Z,64.80
2022-10-21T10:24:20.866Z,64.60
2022-10-21T10:26:50.070Z,64.90
2022-10-21T10:29:19.881Z,64.60
2022-10-21T10:31:51.060Z,64.80
2022-10-21T10:34:37.645Z,64.90
2022-10-21T10:37:26.941Z,64.90
2022-10-21T10:39:57.684Z,64.90
2022-10-21T10:42:38.133Z,65.50
2022-10-21T10:45:26.512Z,65.20
2022-10-21T10:48:15.711Z,65.00
2022-10-21T10:50:53.898Z,65.00
2022-10-21T10:53:23.705Z,65.10
2022-10-21T10:56:04.275Z,65.10
2022-10-21T10:58:33.488Z,65.30
2022-10-21T11:01:02.467Z,65.20
2022-10-21T11:03:37.938Z,65.90
2022-10-21T11:06:16.641Z,65.20
2022-10-21T11:08:46.419Z,65.30
2022-10-21T11:11:22.494Z,65.20
2022-10-21T11:29:19.850Z,65.20
2022-10-21T11:32:10.179Z,65.20
2022-10-21T11:34:51.469Z,65.20
2022-10-21T11:37:50.803Z,65.20
2022-10-21T11:40:40.057Z,65.20
2022-10-21T11:43:21.254Z,65.20
2022-10-21T11:46:17.630Z,65.20
2022-10-21T11:48:50.215Z,65.30
2022-10-21T11:51:32.422Z,65.30
2022-10-21T11:54:12.452Z,65.20
2022-10-21T11:56:44.409Z,65.30
2022-10-21T11:59:11.183Z,65.30
2022-10-21T12:01:50.361Z,65.20
2022-10-21T12:04:33.344Z,65.30
2022-10-21T12:07:25.210Z,65.30
2022-10-21T12:09:51.915Z,65.40
2022-10-21T12:12:30.575Z,65.10
2022-10-21T12:15:02.403Z,65.20
2022-10-21T12:17:32.277Z,65.30
2022-10-21T12:20:01.739Z,65.50
2022-10-21T12:22:35.203Z,65.50
2022-10-21T12:32:06.303Z,65.30
2022-10-21T12:34:33.313Z,65.40
2022-10-21T12:37:02.124Z,65.40
2022-10-21T12:39:35.191Z,65.30
2022-10-21T12:42:05.848Z,65.50
2022-10-21T12:44:33.245Z,65.60
2022-10-21T12:47:04.827Z,65.70
2022-10-21T12:49:47.738Z,65.70
2022-10-21T12:52:17.787Z,65.70
2022-10-21T12:54:52.664Z,65.60
2022-10-21T12:57:39.567Z,66.00
2022-10-21T13:00:33.790Z,65.80
2022-10-21T13:03:00.460Z,65.80
2022-10-21T13:05:36.443Z,65.70
2022-10-21T13:08:15.439Z,65.70
2022-10-21T13:11:02.247Z,65.90
2022-10-21T13:13:29.045Z,65.90
2022-10-21T13:15:56.236Z,66.00
2022-10-21T13:18:42.829Z,66.00
2022-10-21T13:21:22.805Z,66.00
2022-10-21T13:23:51.912Z,66.60
2022-10-21T13:26:20.676Z,66.30
2022-10-21T13:28:58.138Z,67.50
2022-10-21T13:31:25.024Z,67.10
2022-10-21T13:33:53.586Z,66.60
2022-10-21T13:39:08.041Z,66.30
2022-10-21T13:41:34.831Z,66.00
2022-10-21T13:44:03.199Z,65.70
2022-10-21T13:46:37.821Z,65.60
2022-10-21T13:49:25.906Z,65.40
2022-10-21T13:51:52.933Z,65.40
2022-10-21T13:54:20.040Z,65.60
2022-10-21T13:56:46.761Z,65.60
2022-10-21T13:59:25.196Z,65.70
2022-10-21T14:01:53.104Z,65.90
2022-10-21T14:04:24.796Z,65.90
2022-10-21T14:06:53.571Z,66.10
2022-10-21T14:09:34.656Z,66.50
2022-10-21T14:12:05.381Z,65.90
2022-10-21T14:14:37.582Z,65.90
2022-10-21T14:17:09.251Z,65.90
2022-10-21T14:19:37.966Z,66.00
2022-10-21T14:24:44.268Z,65.90
2022-10-21T14:27:12.811Z,66.00
2022-10-21T14:29:39.894Z,66.00
2022-10-21T14:32:06.670Z,66.00
2022-10-21T14:34:34.740Z,65.90
2022-10-21T14:37:11.852Z,66.00
2022-10-21T14:39:39.503Z,66.00
2022-10-21T14:42:08.254Z,66.10
2022-10-21T14:44:34.908Z,66.10
2022-10-21T14:47:01.614Z,66.20
2022-10-21T14:49:32.998Z,66.20
2022-10-21T14:52:04.410Z,66.20
2022-10-21T14:54:36.836Z,66.20
2022-10-21T14:57:04.550Z,66.20
2022-10-21T14:59:37.155Z,66.20
2022-10-21T15:02:04.050Z,66.20
2022-10-21T15:04:50.357Z,66.30
2022-10-21T15:07:29.113Z,66.30
2022-10-21T15:09:56.707Z,66.40
2022-10-21T15:12:23.320Z,66.40
2022-10-21T15:14:50.000Z,66.40
2022-10-21T15:17:16.879Z,66.30
2022-10-21T15:19:48.058Z,66.30
2022-10-21T15:22:34.528Z,66.40
2022-10-21T15:25:06.067Z,66.50
2022-10-21T15:27:37.044Z,66.70
2022-10-21T15:30:13.455Z,66.60
2022-10-21T15:32:40.084Z,66.50
2022-10-21T15:35:07.376Z,66.50
2022-10-21T15:37:33.992Z,66.60
2022-10-21T15:40:00.691Z,66.70
2022-10-21T15:42:27.350Z,66.60
2022-10-21T15:44:53.995Z,66.60
2022-10-21T15:47:20.828Z,66.60
2022-10-21T15:49:49.272Z,66.60
2022-10-21T15:52:15.943Z,66.60
2022-10-21T15:54:42.760Z,66.60
2022-10-21T15:57:17.861Z,66.60
2022-10-21T15:59:44.563Z,66.60
2022-10-21T16:02:15.585Z,66.70
2022-10-21T16:04:44.149Z,66.60
2022-10-21T16:07:18.403Z,67.10
2022-10-21T16:09:45.099Z,66.70
2022-10-21T16:12:11.765Z,66.70
2022-10-21T16:14:38.409Z,66.90
2022-10-21T16:17:05.063Z,66.90
2022-10-21T16:19:31.727Z,66.70
2022-10-21T16:21:58.366Z,66.60
2022-10-21T16:24:25.092Z,66.80
2022-10-21T16:26:51.737Z,66.80
2022-10-21T16:29:20.601Z,66.80
2022-10-21T16:31:47.551Z,66.90
2022-10-21T16:34:14.269Z,66.80
2022-10-21T16:36:40.968Z,66.90
2022-10-21T16:39:13.862Z,66.90
2022-10-21T16:41:40.577Z,67.00
2022-10-21T16:44:07.233Z,67.00
2022-10-21T16:46:38.786Z,67.10
2022-10-21T16:49:12.083Z,67.10
2022-10-21T16:51:40.707Z,67.20
2022-10-21T16:54:07.433Z,67.20
2022-10-21T16:56:34.273Z,67.40
2022-10-21T16:59:01.149Z,67.30
2022-10-21T17:01:27.944Z,67.20
2022-10-21T17:03:54.650Z,67.30
2022-10-21T17:06:22.912Z,67.40
2022-10-21T17:08:50.393Z,67.60
2022-10-21T17:11:19.859Z,67.50
2022-10-21T17:13:46.527Z,67.90
2022-10-21T17:16:13.291Z,67.60
2022-10-21T17:18:40.009Z,67.50
2022-10-21T17:21:07.601Z,67.60
2022-10-21T17:23:34.319Z,67.60
2022-10-21T17:26:01.050Z,67.50
2022-10-21T17:28:27.716Z,68.00
2022-10-21T17:30:54.976Z,69.20
2022-10-21T17:33:21.878Z,67.90
2022-10-21T17:35:49.032Z,67.80
2022-10-21T17:38:15.859Z,68.10
2022-10-21T17:40:42.852Z,68.00
2022-10-21T17:43:09.536Z,67.80
2022-10-21T17:45:36.177Z,68.00
2022-10-21T17:48:03.354Z,68.00
2022-10-21T17:50:31.900Z,68.10
2022-10-21T17:52:59.426Z,68.40
2022-10-21T17:55:27.087Z,68.10
2022-10-21T17:57:53.769Z,68.10
2022-10-21T18:00:20.522Z,68.40
2022-10-21T18:02:47.185Z,68.10
2022-10-21T18:05:13.848Z,68.20
2022-10-21T18:07:40.786Z,68.30
2022-10-21T18:10:08.041Z,68.20
2022-10-21T18:12:35.614Z,68.20
2022-10-21T18:15:02.364Z,68.40
2022-10-21T18:17:28.990Z,68.20
2022-10-21T18:19:55.662Z,68.40
2022-10-21T18:22:22.368Z,68.90
2022-10-21T18:24:48.987Z,68.40
2022-10-21T18:27:15.707Z,68.50
2022-10-21T18:29:42.300Z,68.60
2022-10-21T18:32:13.716Z,68.60
2022-10-21T18:34:42.390Z,68.40
2022-10-21T18:37:09.258Z,68.40
2022-10-21T18:39:35.982Z,68.20
2022-10-21T18:42:02.661Z,68.60
2022-10-21T18:44:30.405Z,68.70
2022-10-21T18:46:57.112Z,68.70
2022-10-21T18:49:23.863Z,68.80
2022-10-21T18:51:50.535Z,68.80
2022-10-21T18:54:17.204Z,68.70
2022-10-21T18:56:45.029Z,68.60
2022-10-21T18:59:12.460Z,68.80
2022-10-21T19:01:40.332Z,68.70
2022-10-21T19:04:07.278Z,68.70
2022-10-21T19:06:33.950Z,69.10
2022-10-21T19:09:03.709Z,68.70
2022-10-21T19:11:30.757Z,68.90
2022-10-21T19:13:57.551Z,69.00
2022-10-21T19:16:24.276Z,69.00
2022-10-21T19:18:50.968Z,69.00
2022-10-21T19:21:18.431Z,69.00
2022-10-21T19:23:45.127Z,69.00
2022-10-21T19:26:11.958Z,68.90
2022-10-21T19:28:39.079Z,68.80
2022-10-21T19:31:07.322Z,68.60
2022-10-21T19:33:34.023Z,68.60
2022-10-21T19:36:01.254Z,68.90
2022-10-21T19:38:43.293Z,68.50
2022-10-21T19:41:11.739Z,68.60
2022-10-21T19:43:38.949Z,68.70
2022-10-21T19:46:06.285Z,69.20
2022-10-21T19:48:34.336Z,68.80
2022-10-21T19:51:00.981Z,68.90
2022-10-21T19:53:27.836Z,69.00
2022-10-21T19:55:55.021Z,69.00
2022-10-21T19:58:21.715Z,69.10
2022-10-21T20:00:48.381Z,69.10
2022-10-21T20:03:15.090Z,69.20
2022-10-21T20:05:42.118Z,69.20
2022-10-21T20:08:08.820Z,69.30
2022-10-21T20:10:35.436Z,69.40
2022-10-21T20:13:02.038Z,69.30
2022-10-21T20:15:28.772Z,69.30
2022-10-21T20:17:55.446Z,69.30
2022-10-21T20:20:22.189Z,69.50
2022-10-21T20:22:48.847Z,69.40
2022-10-21T20:25:15.524Z,69.50
2022-10-21T20:27:42.363Z,69.40
2022-10-21T20:30:09.355Z,69.50
2022-10-21T20:32:36.075Z,69.60
2022-10-21T20:35:02.834Z,69.80
2022-10-21T20:37:29.467Z,69.50
2022-10-21T20:39:56.124Z,69.70
2022-10-21T20:42:22.743Z,69.60
2022-10-21T20:44:49.377Z,69.90
2022-10-21T20:47:17.052Z,69.60
2022-10-21T20:49:43.745Z,69.60
2022-10-21T20:52:10.399Z,69.60
2022-10-21T20:54:37.007Z,70.20
2022-10-21T20:57:03.760Z,69.80
2022-10-21T20:59:30.414Z,69.60
2022-10-21T21:01:57.062Z,69.60
2022-10-21T21:04:25.342Z,69.60
2022-10-21T21:06:52.072Z,69.60
2022-10-21T21:09:43.714Z,69.60
2022-10-21T21:12:06.387Z,69.60
2022-10-21T21:14:33.321Z,69.60
2022-10-21T21:16:59.991Z,69.60
2022-10-21T21:19:26.724Z,69.60
2022-10-21T21:21:53.443Z,69.60
2022-10-21T21:24:20.338Z,69.70
2022-10-21T21:26:46.955Z,69.70
2022-10-21T21:29:13.952Z,69.80
2022-10-21T21:31:41.290Z,70.00
2022-10-21T21:34:08.180Z,70.40
2022-10-21T21:36:35.104Z,70.50
2022-10-21T21:39:01.909Z,69.90
2022-10-21T21:41:28.952Z,69.80
2022-10-21T21:43:56.942Z,69.80
2022-10-21T21:46:24.126Z,69.90
2022-10-21T21:48:54.881Z,69.90
2022-10-21T21:51:24.540Z,69.90
2022-10-21T21:53:52.297Z,69.90
2022-10-21T21:56:19.787Z,70.00
2022-10-21T21:58:47.222Z,70.00
2022-10-21T22:01:18.165Z,70.00
2022-10-21T22:03:46.324Z,70.00
2022-10-21T22:06:13.466Z,70.50
2022-10-21T22:08:40.904Z,69.90
2022-10-21T22:11:09.169Z,70.00
2022-10-21T22:13:36.284Z,70.00
2022-10-21T22:16:03.128Z,70.00
2022-10-21T22:18:29.884Z,70.00
2022-10-21T22:21:00.478Z,70.10
2022-10-21T22:23:27.242Z,70.20
2022-10-21T22:25:54.230Z,70.10
2022-10-21T22:28:21.127Z,70.10
2022-10-21T22:30:58.174Z,70.10
2022-10-21T22:33:25.451Z,70.10
2022-10-21T22:35:52.147Z,70.10
2022-10-21T22:38:18.979Z,70.10
2022-10-21T22:40:45.631Z,70.20
2022-10-21T22:43:12.284Z,70.20
2022-10-21T22:45:38.934Z,70.30
2022-10-21T22:48:05.604Z,71.00
2022-10-21T22:50:32.247Z,70.20
2022-10-21T22:52:58.948Z,70.20
2022-10-21T22:55:25.570Z,70.30
2022-10-21T22:57:52.212Z,70.40
2022-10-21T23:00:18.880Z,70.40
2022-10-21T23:02:45.524Z,70.30
2022-10-21T23:05:12.208Z,70.40
2022-10-21T23:07:38.930Z,70.40
2022-10-21T23:12:37.972Z,70.50
2022-10-21T23:15:05.556Z,70.40
2022-10-21T23:17:32.193Z,70.50
2022-10-21T23:19:58.829Z,70.50
2022-10-21T23:22:25.543Z,70.50
2022-10-21T23:24:52.255Z,71.10
2022-10-21T23:27:18.971Z,71.00
2022-10-21T23:29:45.579Z,70.10
2022-10-21T23:32:12.331Z,70.60
2022-10-21T23:34:38.960Z,70.70
2022-10-21T23:37:05.659Z,70.70
2022-10-21T23:39:32.347Z,70.70
2022-10-21T23:41:58.960Z,70.70
2022-10-21T23:44:27.494Z,71.00
2022-10-21T23:46:54.127Z,70.80
2022-10-21T23:49:20.775Z,70.70
2022-10-21T23:51:47.427Z,70.80
2022-10-21T23:54:14.344Z,70.70
2022-10-21T23:56:41.012Z,70.80
2022-10-21T23:59:07.732Z,71.50
